createdAt,value
2024-05-09T00:00:18.159Z,10.28
2024-05-09T00:01:10.874Z,10.28
2024-05-09T00:02:10.957Z,10.28
2024-05-09T00:03:11.923Z,10.28
2024-05-09T00:04:10.904Z,10.27
2024-05-09T00:05:11.154Z,10.27
2024-05-09T00:06:10.943Z,10.27
2024-05-09T00:07:10.713Z,10.27
2024-05-09T00:08:11.063Z,10.27
2024-05-09T00:09:10.702Z,10.27
2024-05-09T00:10:18.263Z,10.27
2024-05-09T00:11:10.909Z,10.27
2024-05-09T00:12:10.822Z,10.27
2024-05-09T00:13:11.248Z,10.27
2024-05-09T00:14:10.778Z,10.27
2024-05-09T00:15:10.627Z,10.27
2024-05-09T00:16:10.657Z,10.26
2024-05-09T00:17:10.652Z,10.26
2024-05-09T00:18:10.693Z,10.26
2024-05-09T00:19:10.747Z,10.25
2024-05-09T00:20:17.588Z,10.25
2024-05-09T00:21:10.615Z,10.25
2024-05-09T00:22:10.577Z,10.25
2024-05-09T00:23:11.784Z,10.25
2024-05-09T00:24:10.543Z,10.25
2024-05-09T00:25:10.518Z,10.24
2024-05-09T00:26:10.539Z,10.24
2024-05-09T00:27:12.672Z,10.23
2024-05-09T00:28:10.495Z,10.23
2024-05-09T00:29:10.583Z,10.23
2024-05-09T00:30:17.427Z,10.23
2024-05-09T00:31:10.459Z,10.23
2024-05-09T00:32:10.644Z,10.23
2024-05-09T00:33:11.525Z,10.23
2024-05-09T00:34:10.473Z,10.22
2024-05-09T00:35:10.421Z,10.22
2024-05-09T00:36:10.406Z,10.21
2024-05-09T00:37:10.386Z,10.21
2024-05-09T00:38:10.475Z,10.21
2024-05-09T00:39:10.404Z,10.20
2024-05-09T00:40:18.286Z,10.20
2024-05-09T00:41:10.435Z,10.20
2024-05-09T00:42:10.315Z,10.20
2024-05-09T00:43:10.686Z,10.20
2024-05-09T00:44:10.354Z,10.19
2024-05-09T00:45:10.322Z,10.19
2024-05-09T00:46:10.301Z,10.19
2024-05-09T00:47:10.385Z,10.18
2024-05-09T00:48:11.599Z,10.18
2024-05-09T00:49:10.374Z,10.17
2024-05-09T00:50:15.946Z,10.17
2024-05-09T00:51:10.420Z,10.17
2024-05-09T00:52:10.241Z,10.17
2024-05-09T00:53:10.334Z,10.16
2024-05-09T00:54:10.225Z,10.16
2024-05-09T00:55:10.264Z,10.16
2024-05-09T00:56:10.215Z,10.16
2024-05-09T00:57:10.220Z,10.15
2024-05-09T00:58:10.192Z,10.15
2024-05-09T00:59:10.254Z,10.14
2024-05-09T01:00:22.320Z,10.13
2024-05-09T01:01:10.236Z,10.13
2024-05-09T01:02:10.249Z,10.13
2024-05-09T01:03:12.393Z,10.13
2024-05-09T01:04:10.267Z,10.13
2024-05-09T01:05:10.279Z,10.13
2024-05-09T01:06:10.181Z,10.13
2024-05-09T01:07:10.078Z,10.12
2024-05-09T01:08:10.588Z,10.12
2024-05-09T01:09:10.068Z,10.12
2024-05-09T01:10:14.336Z,10.12
2024-05-09T01:11:10.172Z,10.12
2024-05-09T01:12:10.230Z,10.12
2024-05-09T01:13:10.062Z,10.13
2024-05-09T01:14:10.049Z,10.13
2024-05-09T01:15:09.992Z,10.13
2024-05-09T01:16:10.043Z,10.12
2024-05-09T01:17:09.999Z,10.12
2024-05-09T01:18:11.005Z,10.12
2024-05-09T01:19:10.105Z,10.11
2024-05-09T01:20:12.959Z,10.11
2024-05-09T01:21:10.063Z,10.10
2024-05-09T01:22:09.952Z,10.09
2024-05-09T01:23:10.395Z,10.09
2024-05-09T01:24:09.903Z,10.09
2024-05-09T01:25:09.901Z,10.08
2024-05-09T01:26:09.937Z,10.08
2024-05-09T01:27:09.882Z,10.07
2024-05-09T01:28:09.887Z,10.07
2024-05-09T01:29:09.909Z,10.06
2024-05-09T01:30:16.949Z,10.06
2024-05-09T01:31:09.850Z,10.05
2024-05-09T01:32:09.973Z,10.05
2024-05-09T01:33:11.614Z,10.04
2024-05-09T01:34:09.851Z,10.04
2024-05-09T01:35:09.829Z,10.04
2024-05-09T01:36:09.784Z,10.04
2024-05-09T01:37:09.775Z,10.03
2024-05-09T01:38:09.999Z,10.03
2024-05-09T01:39:09.779Z,10.03
2024-05-09T01:40:14.900Z,10.02
2024-05-09T01:41:09.758Z,10.02
2024-05-09T01:42:09.722Z,10.02
2024-05-09T01:43:10.973Z,10.01
2024-05-09T01:44:09.799Z,10.02
2024-05-09T01:45:09.686Z,10.02
2024-05-09T01:46:09.685Z,10.02
2024-05-09T01:47:09.727Z,10.02
2024-05-09T01:48:10.730Z,10.01
2024-05-09T01:49:09.773Z,10.01
2024-05-09T01:50:11.060Z,10.01
2024-05-09T01:51:09.808Z,10.01
2024-05-09T01:52:09.617Z,10.01
2024-05-09T01:53:09.983Z,10.01
2024-05-09T01:54:09.629Z,10.01
2024-05-09T01:55:09.587Z,10.01
2024-05-09T01:56:09.643Z,10.02
2024-05-09T01:57:09.559Z,10.02
2024-05-09T01:58:09.877Z,10.03
2024-05-09T01:59:09.634Z,10.03
2024-05-09T02:00:10.413Z,10.03
2024-05-09T02:01:09.687Z,10.03
2024-05-09T02:02:09.655Z,10.03
2024-05-09T02:03:10.172Z,10.04
2024-05-09T02:04:09.579Z,10.04
2024-05-09T02:05:09.740Z,10.05
2024-05-09T02:06:09.622Z,10.05
2024-05-09T02:07:09.460Z,10.05
2024-05-09T02:08:09.502Z,10.05
2024-05-09T02:09:09.424Z,10.05
2024-05-09T02:10:16.200Z,10.05
2024-05-09T02:11:09.601Z,10.05
2024-05-09T02:12:09.588Z,10.05
2024-05-09T02:13:09.454Z,10.05
2024-05-09T02:14:09.413Z,10.05
2024-05-09T02:15:09.402Z,10.04
2024-05-09T02:16:09.394Z,10.04
2024-05-09T02:17:09.460Z,10.04
2024-05-09T02:18:09.525Z,10.03
2024-05-09T02:19:09.442Z,10.03
2024-05-09T02:20:13.254Z,10.03
2024-05-09T02:21:09.502Z,10.03
2024-05-09T02:22:09.334Z,10.02
2024-05-09T02:23:09.764Z,10.02
2024-05-09T02:24:09.275Z,10.01
2024-05-09T02:25:09.318Z,10.01
2024-05-09T02:26:09.299Z,10.01
2024-05-09T02:27:09.363Z,10.00
2024-05-09T02:28:09.227Z,10.00
2024-05-09T02:29:09.321Z,9.99
2024-05-09T02:30:18.528Z,9.98
2024-05-09T02:31:09.202Z,9.98
2024-05-09T02:32:09.230Z,9.97
2024-05-09T02:33:10.956Z,9.97
2024-05-09T02:34:09.279Z,9.96
2024-05-09T02:35:09.239Z,9.95
2024-05-09T02:36:09.179Z,9.94
2024-05-09T02:37:09.137Z,9.93
2024-05-09T02:38:09.220Z,9.93
2024-05-09T02:39:09.157Z,9.92
2024-05-09T02:40:11.639Z,9.92
2024-05-09T02:41:09.149Z,9.92
2024-05-09T02:42:09.099Z,9.91
2024-05-09T02:43:10.824Z,9.91
2024-05-09T02:44:09.103Z,9.90
2024-05-09T02:45:09.110Z,9.90
2024-05-09T02:46:09.058Z,9.90
2024-05-09T02:47:09.176Z,9.89
2024-05-09T02:48:09.146Z,9.89
2024-05-09T02:49:09.185Z,9.88
2024-05-09T02:50:13.226Z,9.87
2024-05-09T02:51:09.086Z,9.87
2024-05-09T02:52:08.997Z,9.86
2024-05-09T02:53:09.853Z,9.86
2024-05-09T02:54:08.961Z,9.86
2024-05-09T02:55:08.998Z,9.85
2024-05-09T02:56:09.047Z,9.85
2024-05-09T02:57:08.946Z,9.84
2024-05-09T02:58:08.951Z,9.84
2024-05-09T02:59:09.039Z,9.83
2024-05-09T03:00:15.187Z,9.82
2024-05-09T03:01:09.005Z,9.82
2024-05-09T03:02:08.978Z,9.81
2024-05-09T03:03:10.601Z,9.81
2024-05-09T03:04:09.060Z,9.80
2024-05-09T03:05:08.940Z,9.79
2024-05-09T03:06:08.810Z,9.78
2024-05-09T03:07:08.878Z,9.77
2024-05-09T03:08:09.057Z,9.76
2024-05-09T03:09:08.823Z,9.75
2024-05-09T03:10:18.159Z,9.74
2024-05-09T03:11:08.948Z,9.73
2024-05-09T03:12:08.907Z,9.73
2024-05-09T03:13:09.147Z,9.72
2024-05-09T03:14:08.783Z,9.71
2024-05-09T03:15:08.761Z,9.71
2024-05-09T03:16:08.729Z,9.71
2024-05-09T03:17:08.850Z,9.70
2024-05-09T03:18:08.975Z,9.71
2024-05-09T03:19:08.895Z,9.71
2024-05-09T03:20:17.286Z,9.70
2024-05-09T03:21:08.921Z,9.69
2024-05-09T03:22:08.710Z,9.68
2024-05-09T03:23:09.971Z,9.66
2024-05-09T03:24:08.679Z,9.65
2024-05-09T03:25:08.667Z,9.63
2024-05-09T03:26:08.705Z,9.62
2024-05-09T03:27:08.631Z,9.61
2024-05-09T03:28:08.644Z,9.61
2024-05-09T03:29:08.670Z,9.61
2024-05-09T03:30:09.972Z,9.61
2024-05-09T03:31:08.582Z,9.61
2024-05-09T03:32:08.670Z,9.60
2024-05-09T03:33:08.753Z,9.59
2024-05-09T03:34:08.616Z,9.58
2024-05-09T03:35:08.638Z,9.57
2024-05-09T03:36:11.199Z,9.56
2024-05-09T03:37:08.512Z,9.55
2024-05-09T03:38:08.676Z,9.54
2024-05-09T03:39:08.509Z,9.54
2024-05-09T03:40:14.483Z,9.53
2024-05-09T03:41:08.551Z,9.53
2024-05-09T03:42:08.496Z,9.53
2024-05-09T03:43:08.465Z,9.53
2024-05-09T03:44:08.508Z,9.53
2024-05-09T03:45:08.435Z,9.52
2024-05-09T03:46:08.460Z,9.51
2024-05-09T03:47:08.482Z,9.49
2024-05-09T03:48:09.033Z,9.48
2024-05-09T03:49:08.501Z,9.47
2024-05-09T03:50:15.147Z,9.46
2024-05-09T03:51:08.706Z,9.46
2024-05-09T03:52:08.357Z,9.45
2024-05-09T03:53:08.395Z,9.45
2024-05-09T03:54:08.340Z,9.45
2024-05-09T03:55:08.364Z,9.46
2024-05-09T03:56:08.339Z,9.46
2024-05-09T03:57:08.389Z,9.47
2024-05-09T03:58:08.534Z,9.48
2024-05-09T03:59:08.370Z,9.48
2024-05-09T04:00:14.856Z,9.47
2024-05-09T04:01:08.305Z,9.47
2024-05-09T04:02:08.376Z,9.48
2024-05-09T04:03:11.011Z,9.48
2024-05-09T04:04:08.252Z,9.48
2024-05-09T04:05:08.256Z,9.49
2024-05-09T04:06:08.215Z,9.49
2024-05-09T04:07:08.247Z,9.49
2024-05-09T04:08:08.254Z,9.49
2024-05-09T04:09:08.185Z,9.50
2024-05-09T04:10:11.260Z,9.50
2024-05-09T04:11:08.249Z,9.51
2024-05-09T04:12:08.295Z,9.52
2024-05-09T04:13:08.173Z,9.52
2024-05-09T04:14:08.173Z,9.51
2024-05-09T04:15:11.197Z,9.51
2024-05-09T04:16:08.119Z,9.50
2024-05-09T04:17:08.173Z,9.50
2024-05-09T04:18:08.392Z,9.50
2024-05-09T04:19:08.137Z,9.51
2024-05-09T04:20:10.570Z,9.52
2024-05-09T04:21:08.055Z,9.53
2024-05-09T04:22:08.045Z,9.54
2024-05-09T04:23:09.036Z,9.56
2024-05-09T04:24:08.021Z,9.58
2024-05-09T04:25:08.083Z,9.59
2024-05-09T04:26:08.032Z,9.61
2024-05-09T04:27:07.990Z,9.62
2024-05-09T04:28:07.976Z,9.64
2024-05-09T04:29:08.005Z,9.66
2024-05-09T04:30:12.456Z,9.67
2024-05-09T04:31:07.996Z,9.69
2024-05-09T04:32:08.136Z,9.71
2024-05-09T04:33:10.118Z,9.74
2024-05-09T04:34:08.032Z,9.76
2024-05-09T04:35:07.967Z,9.79
2024-05-09T04:36:07.908Z,9.82
2024-05-09T04:37:07.925Z,9.84
2024-05-09T04:38:07.899Z,9.87
2024-05-09T04:39:07.888Z,9.89
2024-05-09T04:40:11.298Z,9.91
2024-05-09T04:41:07.931Z,9.94
2024-05-09T04:42:07.878Z,9.97
2024-05-09T04:43:07.826Z,10.01
2024-05-09T04:44:07.868Z,10.04
2024-05-09T04:45:07.813Z,10.07
2024-05-09T04:46:07.793Z,10.10
2024-05-09T04:47:07.852Z,10.13
2024-05-09T04:48:08.020Z,10.16
2024-05-09T04:49:07.854Z,10.18
2024-05-09T04:50:11.532Z,10.20
2024-05-09T04:51:07.850Z,10.21
2024-05-09T04:52:07.732Z,10.22
2024-05-09T04:53:09.265Z,10.23
2024-05-09T04:54:10.721Z,10.24
2024-05-09T04:55:07.717Z,10.24
2024-05-09T04:56:07.723Z,10.25
2024-05-09T04:57:07.677Z,10.26
2024-05-09T04:58:07.703Z,10.26
2024-05-09T04:59:07.776Z,10.26
2024-05-09T05:00:14.502Z,10.26
2024-05-09T05:01:07.653Z,10.26
2024-05-09T05:02:07.694Z,10.26
2024-05-09T05:03:08.762Z,10.26
2024-05-09T05:04:07.656Z,10.25
2024-05-09T05:05:07.689Z,10.25
2024-05-09T05:06:07.705Z,10.24
2024-05-09T05:07:07.581Z,10.24
2024-05-09T05:08:07.583Z,10.24
2024-05-09T05:09:07.574Z,10.25
2024-05-09T05:10:09.370Z,10.26
2024-05-09T05:11:07.641Z,10.27
2024-05-09T05:12:07.653Z,10.29
2024-05-09T05:13:07.516Z,10.31
2024-05-09T05:14:07.605Z,10.34
2024-05-09T05:15:07.508Z,10.37
2024-05-09T05:16:07.498Z,10.40
2024-05-09T05:17:07.537Z,10.43
2024-05-09T05:18:07.613Z,10.47
2024-05-09T05:19:10.824Z,10.50
2024-05-09T05:20:08.747Z,10.53
2024-05-09T05:21:07.455Z,10.55
2024-05-09T05:22:07.451Z,10.57
2024-05-09T05:23:07.531Z,10.61
2024-05-09T05:24:07.441Z,10.64
2024-05-09T05:25:07.408Z,10.68
2024-05-09T05:26:07.432Z,10.71
2024-05-09T05:27:07.362Z,10.74
2024-05-09T05:28:07.344Z,10.77
2024-05-09T05:29:07.398Z,10.80
2024-05-09T05:30:12.023Z,10.84
2024-05-09T05:31:07.350Z,10.89
2024-05-09T05:32:07.387Z,10.93
2024-05-09T05:33:07.609Z,10.96
2024-05-09T05:34:07.396Z,10.97
2024-05-09T05:35:07.306Z,10.99
2024-05-09T05:36:07.276Z,11.02
2024-05-09T05:37:07.286Z,11.06
2024-05-09T05:38:07.325Z,11.10
2024-05-09T05:39:07.278Z,11.15
2024-05-09T05:40:09.391Z,11.20
2024-05-09T05:41:07.249Z,11.24
2024-05-09T05:42:07.227Z,11.28
2024-05-09T05:43:07.197Z,11.31
2024-05-09T05:44:07.271Z,11.34
2024-05-09T05:45:09.651Z,11.38
2024-05-09T05:46:07.165Z,11.43
2024-05-09T05:47:07.183Z,11.48
2024-05-09T05:48:07.826Z,11.53
2024-05-09T05:49:07.214Z,11.57
2024-05-09T05:50:14.466Z,11.62
2024-05-09T05:51:07.197Z,11.67
2024-05-09T05:52:07.100Z,11.72
2024-05-09T05:53:08.260Z,11.77
2024-05-09T05:54:07.122Z,11.81
2024-05-09T05:55:07.085Z,11.86
2024-05-09T05:56:07.166Z,11.90
2024-05-09T05:57:07.118Z,11.92
2024-05-09T05:58:07.044Z,11.93
2024-05-09T05:59:07.084Z,11.93
2024-05-09T06:00:09.608Z,11.94
2024-05-09T06:01:07.035Z,11.95
2024-05-09T06:02:07.148Z,11.97
2024-05-09T06:03:07.170Z,12.00
2024-05-09T06:04:07.023Z,12.02
2024-05-09T06:05:07.056Z,12.05
2024-05-09T06:06:07.042Z,12.08
2024-05-09T06:07:07.016Z,12.11
2024-05-09T06:08:07.102Z,12.13
2024-05-09T06:09:06.920Z,12.16
2024-05-09T06:10:11.462Z,12.20
2024-05-09T06:11:06.978Z,12.24
2024-05-09T06:12:06.973Z,12.30
2024-05-09T06:13:06.911Z,12.37
2024-05-09T06:14:06.924Z,12.46
2024-05-09T06:15:06.866Z,12.56
2024-05-09T06:16:06.852Z,12.68
2024-05-09T06:17:06.986Z,12.81
2024-05-09T06:18:07.103Z,12.92
2024-05-09T06:19:06.937Z,13.02
2024-05-09T06:20:13.287Z,13.12
2024-05-09T06:21:06.846Z,13.18
2024-05-09T06:22:06.791Z,13.23
2024-05-09T06:23:07.170Z,13.30
2024-05-09T06:24:06.870Z,13.37
2024-05-09T06:25:06.780Z,13.44
2024-05-09T06:26:06.744Z,13.51
2024-05-09T06:27:06.797Z,13.57
2024-05-09T06:28:06.839Z,13.62
2024-05-09T06:29:06.792Z,13.67
2024-05-09T06:30:09.877Z,13.71
2024-05-09T06:31:06.709Z,13.74
2024-05-09T06:32:06.826Z,13.76
2024-05-09T06:33:06.872Z,13.76
2024-05-09T06:34:06.759Z,13.76
2024-05-09T06:35:06.800Z,13.75
2024-05-09T06:36:06.636Z,13.75
2024-05-09T06:37:06.625Z,13.75
2024-05-09T06:38:06.691Z,13.73
2024-05-09T06:39:06.622Z,13.70
2024-05-09T06:40:07.616Z,13.65
2024-05-09T06:41:06.665Z,13.60
2024-05-09T06:42:06.599Z,13.57
2024-05-09T06:43:06.559Z,13.51
2024-05-09T06:44:06.590Z,13.45
2024-05-09T06:45:06.578Z,13.44
2024-05-09T06:46:06.560Z,13.49
2024-05-09T06:47:06.673Z,13.54
2024-05-09T06:48:06.818Z,13.56
2024-05-09T06:49:06.644Z,13.58
2024-05-09T06:50:13.098Z,13.57
2024-05-09T06:51:06.538Z,13.56
2024-05-09T06:52:06.450Z,13.52
2024-05-09T06:53:06.654Z,13.46
2024-05-09T06:54:06.512Z,13.38
2024-05-09T06:55:06.438Z,13.29
2024-05-09T06:56:06.432Z,13.22
2024-05-09T06:57:06.461Z,13.16
2024-05-09T06:58:06.702Z,13.15
2024-05-09T06:59:06.451Z,13.18
2024-05-09T07:01:06.429Z,13.30
2024-05-09T07:02:06.475Z,13.37
2024-05-09T07:03:06.503Z,13.45
2024-05-09T07:04:06.532Z,13.55
2024-05-09T07:05:06.506Z,13.70
2024-05-09T07:06:06.389Z,13.88
2024-05-09T07:07:06.376Z,14.07
2024-05-09T07:08:06.348Z,14.25
2024-05-09T07:09:06.290Z,14.40
2024-05-09T07:10:09.929Z,14.50
2024-05-09T07:11:06.339Z,14.57
2024-05-09T07:12:06.380Z,14.63
2024-05-09T07:13:06.234Z,14.73
2024-05-09T07:14:06.333Z,14.90
2024-05-09T07:15:06.232Z,15.11
2024-05-09T07:16:06.271Z,15.36
2024-05-09T07:17:06.388Z,15.63
2024-05-09T07:18:06.420Z,15.90
2024-05-09T07:19:06.412Z,16.11
2024-05-09T07:20:08.990Z,16.24
2024-05-09T07:21:06.270Z,16.33
2024-05-09T07:22:06.128Z,16.44
2024-05-09T07:23:06.189Z,16.59
2024-05-09T07:24:06.137Z,16.69
2024-05-09T07:25:06.112Z,16.75
2024-05-09T07:26:06.139Z,16.77
2024-05-09T07:27:06.189Z,16.78
2024-05-09T07:28:06.100Z,16.79
2024-05-09T07:29:06.156Z,16.81
2024-05-09T07:30:07.335Z,16.84
2024-05-09T07:31:06.067Z,16.92
2024-05-09T07:32:06.123Z,17.03
2024-05-09T07:33:06.288Z,17.10
2024-05-09T07:34:06.154Z,17.07
2024-05-09T07:35:06.081Z,16.95
2024-05-09T07:36:05.999Z,16.81
2024-05-09T07:37:06.009Z,16.67
2024-05-09T07:38:06.089Z,16.51
2024-05-09T07:39:05.974Z,16.37
2024-05-09T07:40:07.615Z,16.31
2024-05-09T07:41:06.016Z,16.35
2024-05-09T07:42:05.962Z,16.46
2024-05-09T07:43:05.918Z,16.50
2024-05-09T07:44:05.969Z,16.49
2024-05-09T07:45:21.564Z,16.42
2024-05-09T07:47:04.509Z,16.22
2024-05-09T07:50:00.952Z,15.74
2024-05-09T07:53:21.098Z,15.64
2024-05-09T07:53:47.536Z,15.58
2024-05-09T07:53:59.565Z,15.58
2024-05-09T07:54:54.856Z,15.65
2024-05-09T07:55:55.254Z,15.73
2024-05-09T07:56:55.207Z,15.81
2024-05-09T07:57:54.692Z,15.93
2024-05-09T07:58:54.769Z,16.16
2024-05-09T07:59:54.633Z,16.45
2024-05-09T08:00:54.874Z,16.72
2024-05-09T08:01:54.739Z,16.95
2024-05-09T08:02:54.625Z,17.16
2024-05-09T08:03:54.864Z,17.36
2024-05-09T08:04:54.721Z,17.51
2024-05-09T08:05:54.667Z,17.54
2024-05-09T08:06:54.649Z,17.48
2024-05-09T08:07:54.592Z,17.39
2024-05-09T08:08:54.585Z,17.31
2024-05-09T08:09:54.582Z,17.28
2024-05-09T08:10:54.595Z,17.26
2024-05-09T08:11:54.541Z,17.21
2024-05-09T08:12:54.544Z,17.13
2024-05-09T08:13:54.497Z,17.03
2024-05-09T08:14:54.519Z,16.97
2024-05-09T08:15:54.485Z,16.93
2024-05-09T08:16:54.559Z,16.90
2024-05-09T08:17:54.715Z,16.84
2024-05-09T08:18:54.512Z,16.75
2024-05-09T08:19:54.446Z,16.62
2024-05-09T08:20:54.407Z,16.50
2024-05-09T08:21:54.443Z,16.41
2024-05-09T08:22:54.384Z,16.31
2024-05-09T08:23:54.399Z,16.13
2024-05-09T08:24:54.444Z,15.88
2024-05-09T08:25:54.370Z,15.63
2024-05-09T08:26:54.365Z,15.44
2024-05-09T08:27:54.378Z,15.33
2024-05-09T08:28:54.345Z,15.29
2024-05-09T08:29:54.361Z,15.27
2024-05-09T08:30:54.428Z,15.28
2024-05-09T08:31:54.350Z,15.32
2024-05-09T08:32:54.370Z,15.36
2024-05-09T08:33:54.467Z,15.40
2024-05-09T08:34:54.384Z,15.44
2024-05-09T08:35:54.276Z,15.45
2024-05-09T08:36:55.139Z,15.50
2024-05-09T08:37:54.286Z,15.60
2024-05-09T08:38:54.216Z,15.67
2024-05-09T08:39:54.240Z,15.72
2024-05-09T08:40:54.272Z,15.76
2024-05-09T08:41:54.187Z,15.79
2024-05-09T08:42:54.244Z,15.82
2024-05-09T08:43:54.193Z,15.84
2024-05-09T08:44:54.162Z,15.84
2024-05-09T08:45:54.250Z,15.83
2024-05-09T08:46:54.176Z,15.81
2024-05-09T08:47:54.177Z,15.78
2024-05-09T08:48:54.238Z,15.77
2024-05-09T08:49:54.153Z,15.78
2024-05-09T08:50:54.195Z,15.83
2024-05-09T08:51:54.211Z,15.99
2024-05-09T08:52:54.084Z,16.27
2024-05-09T08:53:54.066Z,16.58
2024-05-09T08:54:54.304Z,16.89
2024-05-09T08:55:54.042Z,17.20
2024-05-09T08:56:54.051Z,17.47
2024-05-09T08:57:54.110Z,17.58
2024-05-09T08:58:54.002Z,17.59
2024-05-09T08:59:54.004Z,17.58
2024-05-09T09:00:54.111Z,17.59
2024-05-09T09:01:54.063Z,17.68
2024-05-09T09:02:54.001Z,17.86
2024-05-09T09:03:54.213Z,18.10
2024-05-09T09:04:54.019Z,18.31
2024-05-09T09:05:54.015Z,18.40
2024-05-09T09:06:56.339Z,18.39
2024-05-09T09:07:53.922Z,18.37
2024-05-09T09:08:53.962Z,18.41
2024-05-09T09:09:53.907Z,18.54
2024-05-09T09:10:53.904Z,18.73
2024-05-09T09:11:53.997Z,18.97
2024-05-09T09:12:53.904Z,19.22
2024-05-09T09:13:53.866Z,19.38
2024-05-09T09:14:53.878Z,19.47
2024-05-09T09:15:53.878Z,19.57
2024-05-09T09:16:53.862Z,19.63
2024-05-09T09:17:53.930Z,19.53
2024-05-09T09:18:54.063Z,19.33
2024-05-09T09:19:53.909Z,19.18
2024-05-09T09:20:53.827Z,19.18
2024-05-09T09:21:53.899Z,19.30
2024-05-09T09:22:53.782Z,19.49
2024-05-09T09:23:53.802Z,19.69
2024-05-09T09:24:53.828Z,19.93
2024-05-09T09:25:53.840Z,20.22
2024-05-09T09:26:53.779Z,20.51
2024-05-09T09:27:53.794Z,20.78
2024-05-09T09:28:53.779Z,21.01
2024-05-09T09:29:53.758Z,21.22
2024-05-09T09:30:53.816Z,21.39
2024-05-09T09:31:53.670Z,21.55
2024-05-09T09:32:53.720Z,21.67
2024-05-09T09:33:54.067Z,21.77
2024-05-09T09:34:53.711Z,21.89
2024-05-09T09:35:53.625Z,22.00
2024-05-09T09:36:53.664Z,22.05
2024-05-09T09:37:53.625Z,22.01
2024-05-09T09:38:53.638Z,21.94
2024-05-09T09:39:53.685Z,21.83
2024-05-09T09:40:53.661Z,21.61
2024-05-09T09:41:53.566Z,21.32
2024-05-09T09:42:53.550Z,21.03
2024-05-09T09:43:53.518Z,20.73
2024-05-09T09:45:02.118Z,20.39
2024-05-09T09:45:54.034Z,20.00
2024-05-09T09:46:53.518Z,19.61
2024-05-09T09:47:53.740Z,19.28
2024-05-09T09:48:53.586Z,18.99
2024-05-09T09:49:53.508Z,18.75
2024-05-09T09:50:53.475Z,18.54
2024-05-09T09:51:53.505Z,18.38
2024-05-09T09:52:53.436Z,18.26
2024-05-09T09:53:53.454Z,18.18
2024-05-09T09:54:53.475Z,18.16
2024-05-09T09:55:53.390Z,18.17
2024-05-09T09:56:53.396Z,18.19
2024-05-09T09:57:53.502Z,18.20
2024-05-09T09:58:53.401Z,18.19
2024-05-09T09:59:53.377Z,18.20
2024-05-09T10:00:53.437Z,18.33
2024-05-09T10:01:53.414Z,18.44
2024-05-09T10:02:53.352Z,18.47
2024-05-09T10:03:53.514Z,18.44
2024-05-09T10:04:53.503Z,18.47
2024-05-09T10:05:53.372Z,18.63
2024-05-09T10:06:53.361Z,18.79
2024-05-09T10:07:53.282Z,18.91
2024-05-09T10:08:53.280Z,18.98
2024-05-09T10:09:53.314Z,19.02
2024-05-09T10:10:53.374Z,19.12
2024-05-09T10:11:59.698Z,19.28
2024-05-09T10:12:53.317Z,19.46
2024-05-09T10:13:53.225Z,19.64
2024-05-09T10:14:53.259Z,19.72
2024-05-09T10:15:53.856Z,19.68
2024-05-09T10:16:53.183Z,19.55
2024-05-09T10:17:53.361Z,19.48
2024-05-09T10:18:53.436Z,19.35
2024-05-09T10:19:53.223Z,19.13
2024-05-09T10:20:53.148Z,19.01
2024-05-09T10:21:53.177Z,18.99
2024-05-09T10:22:53.120Z,19.04
2024-05-09T10:23:53.135Z,19.22
2024-05-09T10:24:53.222Z,19.38
2024-05-09T10:25:53.143Z,19.46
2024-05-09T10:26:53.071Z,19.60
2024-05-09T10:27:53.179Z,19.73
2024-05-09T10:28:53.060Z,19.79
2024-05-09T10:29:53.081Z,19.81
2024-05-09T10:30:53.162Z,19.82
2024-05-09T10:31:53.108Z,19.81
2024-05-09T10:32:53.147Z,19.72
2024-05-09T10:33:53.427Z,19.51
2024-05-09T10:34:53.065Z,19.25
2024-05-09T10:35:53.008Z,19.05
2024-05-09T10:36:53.162Z,18.99
2024-05-09T10:37:52.983Z,19.03
2024-05-09T10:38:53.071Z,19.10
2024-05-09T10:39:53.084Z,19.16
2024-05-09T10:40:52.994Z,19.24
2024-05-09T10:41:52.935Z,19.34
2024-05-09T10:42:53.029Z,19.46
2024-05-09T10:43:52.974Z,19.63
2024-05-09T10:44:52.916Z,19.73
2024-05-09T10:45:53.014Z,19.69
2024-05-09T10:46:52.927Z,19.57
2024-05-09T10:47:53.111Z,19.40
2024-05-09T10:48:52.932Z,19.24
2024-05-09T10:49:52.952Z,19.11
2024-05-09T10:50:52.875Z,19.01
2024-05-09T10:51:52.916Z,18.85
2024-05-09T10:52:52.790Z,18.69
2024-05-09T10:53:52.798Z,18.60
2024-05-09T10:54:52.876Z,18.58
2024-05-09T10:55:52.846Z,18.62
2024-05-09T10:56:52.755Z,18.67
2024-05-09T10:57:52.815Z,18.73
2024-05-09T10:58:52.732Z,18.80
2024-05-09T10:59:52.741Z,18.91
2024-05-09T11:00:52.794Z,19.00
2024-05-09T11:01:52.809Z,19.06
2024-05-09T11:02:52.748Z,19.09
2024-05-09T11:03:52.883Z,19.10
2024-05-09T11:04:52.774Z,19.08
2024-05-09T11:05:52.803Z,19.07
2024-05-09T11:06:52.729Z,19.07
2024-05-09T11:07:52.649Z,19.08
2024-05-09T11:08:52.635Z,19.08
2024-05-09T11:09:52.679Z,19.04
2024-05-09T11:10:52.783Z,18.91
2024-05-09T11:11:52.689Z,18.74
2024-05-09T11:12:52.727Z,18.64
2024-05-09T11:13:52.599Z,18.60
2024-05-09T11:14:52.574Z,18.58
2024-05-09T11:15:52.612Z,18.56
2024-05-09T11:16:52.581Z,18.54
2024-05-09T11:17:52.756Z,18.56
2024-05-09T11:18:52.833Z,18.61
2024-05-09T11:19:52.624Z,18.71
2024-05-09T11:20:52.504Z,18.91
2024-05-09T11:21:52.596Z,19.07
2024-05-09T11:22:52.528Z,19.14
2024-05-09T11:23:52.498Z,19.23
2024-05-09T11:24:52.644Z,19.35
2024-05-09T11:25:52.431Z,19.53
2024-05-09T11:26:52.511Z,19.71
2024-05-09T11:27:52.492Z,19.80
2024-05-09T11:28:52.424Z,19.90
2024-05-09T11:29:52.447Z,20.04
2024-05-09T11:30:52.491Z,20.21
2024-05-09T11:31:52.419Z,20.40
2024-05-09T11:32:52.496Z,20.60
2024-05-09T11:33:52.511Z,20.82
2024-05-09T11:34:52.369Z,21.05
2024-05-09T11:35:52.372Z,21.26
2024-05-09T11:36:52.366Z,21.42
2024-05-09T11:37:52.346Z,21.49
2024-05-09T11:38:52.350Z,21.55
2024-05-09T11:39:52.384Z,21.59
2024-05-09T11:40:52.353Z,21.60
2024-05-09T11:41:52.292Z,21.61
2024-05-09T11:42:53.485Z,21.59
2024-05-09T11:43:52.326Z,21.58
2024-05-09T11:44:52.235Z,21.51
2024-05-09T11:45:52.297Z,21.38
2024-05-09T11:46:52.241Z,21.30
2024-05-09T11:47:52.312Z,21.32
2024-05-09T11:48:52.306Z,21.39
2024-05-09T11:49:52.259Z,21.50
2024-05-09T11:50:52.200Z,21.61
2024-05-09T11:51:52.243Z,21.75
2024-05-09T11:52:52.185Z,21.93
2024-05-09T11:53:52.176Z,22.14
2024-05-09T11:54:52.183Z,22.33
2024-05-09T11:55:52.187Z,22.36
2024-05-09T11:56:52.130Z,22.30
2024-05-09T11:57:52.194Z,22.28
2024-05-09T11:58:52.118Z,22.31
2024-05-09T11:59:52.113Z,22.40
2024-05-09T12:00:52.244Z,22.52
2024-05-09T12:01:52.191Z,22.66
2024-05-09T12:02:52.127Z,22.81
2024-05-09T12:03:52.429Z,22.90
2024-05-09T12:04:52.119Z,22.82
2024-05-09T12:05:52.228Z,22.46
2024-05-09T12:06:52.087Z,21.99
2024-05-09T12:07:52.009Z,21.59
2024-05-09T12:08:52.013Z,21.20
2024-05-09T12:09:52.028Z,20.82
2024-05-09T12:10:52.144Z,20.54
2024-05-09T12:11:51.994Z,20.28
2024-05-09T12:12:52.038Z,20.05
2024-05-09T12:13:51.950Z,19.92
2024-05-09T12:14:51.939Z,19.85
2024-05-09T12:15:51.993Z,19.81
2024-05-09T12:16:51.987Z,19.79
2024-05-09T12:17:51.984Z,19.78
2024-05-09T12:18:52.040Z,19.74
2024-05-09T12:19:51.915Z,19.63
2024-05-09T12:20:51.913Z,19.45
2024-05-09T12:21:51.914Z,19.32
2024-05-09T12:22:51.852Z,19.23
2024-05-09T12:23:51.881Z,19.15
2024-05-09T12:24:51.879Z,19.13
2024-05-09T12:25:51.849Z,19.27
2024-05-09T12:26:51.826Z,19.59
2024-05-09T12:27:51.860Z,20.01
2024-05-09T12:28:51.862Z,20.46
2024-05-09T12:29:51.780Z,20.89
2024-05-09T12:30:51.808Z,21.12
2024-05-09T12:31:51.828Z,21.11
2024-05-09T12:32:51.809Z,20.96
2024-05-09T12:33:51.989Z,20.81
2024-05-09T12:34:51.762Z,20.69
2024-05-09T12:35:51.733Z,20.59
2024-05-09T12:36:51.757Z,20.51
2024-05-09T12:37:51.719Z,20.47
2024-05-09T12:38:51.729Z,20.52
2024-05-09T12:39:51.760Z,20.56
2024-05-09T12:40:51.842Z,20.65
2024-05-09T12:41:51.687Z,20.86
2024-05-09T12:42:51.686Z,21.06
2024-05-09T12:43:51.667Z,21.27
2024-05-09T12:44:51.672Z,21.50
2024-05-09T12:45:51.635Z,21.59
2024-05-09T12:46:51.624Z,21.62
2024-05-09T12:47:51.704Z,21.76
2024-05-09T12:48:51.790Z,21.97
2024-05-09T12:49:51.629Z,22.18
2024-05-09T12:50:51.643Z,22.30
2024-05-09T12:51:51.575Z,22.20
2024-05-09T12:52:51.564Z,21.94
2024-05-09T12:53:51.553Z,21.71
2024-05-09T12:54:51.585Z,21.63
2024-05-09T12:55:56.894Z,21.73
2024-05-09T12:56:51.541Z,21.97
2024-05-09T12:57:51.542Z,22.20
2024-05-09T12:58:51.484Z,22.36
2024-05-09T12:59:51.510Z,22.40
2024-05-09T13:00:51.689Z,22.27
2024-05-09T13:01:51.556Z,22.11